sensor_id;sensor_type;location;lat;lon;timestamp;pressure;altitude;pressure_sealevel;temperature;humidity
16595;BME280;8410;52.532;13.336;2023-03-22T00:01:24;100734.59;;;13.89;92.23
16595;BME280;8410;52.532;13.336;2023-03-22T00:03:53;100728.59;;;13.65;92.94
16595;BME280;8410;52.532;13.336;2023-03-22T00:06:22;100729.44;;;13.94;91.53
16595;BME280;8410;52.532;13.336;2023-03-22T00:08:50;100732.91;;;13.46;92.35
16595;BME280;8410;52.532;13.336;2023-03-22T00:11:20;100735.47;;;13.86;91.58
16595;BME280;8410;52.532;13.336;2023-03-22T00:13:49;100732.03;;;13.54;93.11
16595;BME280;8410;52.532;13.336;2023-03-22T00:16:18;100727.72;;;13.50;90.25
16595;BME280;8410;52.532;13.336;2023-03-22T00:18:46;100730.22;;;12.97;93.44
16595;BME280;8410;52.532;13.336;2023-03-22T00:21:14;100726.88;;;13.48;93.06
16595;BME280;8410;52.532;13.336;2023-03-22T00:23:42;100723.41;;;13.36;92.67
16595;BME280;8410;52.532;13.336;2023-03-22T00:26:11;100725.16;;;13.56;90.95
16595;BME280;8410;52.532;13.336;2023-03-22T00:28:40;100726.88;;;13.38;91.22
16595;BME280;8410;52.532;13.336;2023-03-22T00:31:09;100719.13;;;13.26;91.00
16595;BME280;8410;52.532;13.336;2023-03-22T00:33:37;100712.16;;;13.02;93.43
16595;BME280;8410;52.532;13.336;2023-03-22T00:36:06;100712.16;;;13.22;92.49
16595;BME280;8410;52.532;13.336;2023-03-22T00:38:34;100716.50;;;13.38;92.94
16595;BME280;8410;52.532;13.336;2023-03-22T00:41:10;100704.44;;;13.50;91.54
16595;BME280;8410;52.532;13.336;2023-03-22T00:43:38;100709.63;;;13.56;91.89
16595;BME280;8410;52.532;13.336;2023-03-22T00:46:07;100708.72;;;13.17;91.92
16595;BME280;8410;52.532;13.336;2023-03-22T00:48:36;100709.63;;;13.34;92.08
16595;BME280;8410;52.532;13.336;2023-03-22T00:51:04;100706.09;;;12.89;93.10
16595;BME280;8410;52.532;13.336;2023-03-22T00:53:32;100703.50;;;12.83;95.32
16595;BME280;8410;52.532;13.336;2023-03-22T00:56:02;100710.47;;;13.30;92.39
16595;BME280;8410;52.532;13.336;2023-03-22T00:58:30;100708.75;;;13.38;92.19
16595;BME280;8410;52.532;13.336;2023-03-22T01:00:57;100713.91;;;13.34;90.78
16595;BME280;8410;52.532;13.336;2023-03-22T01:03:26;100710.47;;;13.33;91.54
16595;BME280;8410;52.532;13.336;2023-03-22T01:05:54;100712.19;;;13.28;92.22
16595;BME280;8410;52.532;13.336;2023-03-22T01:08:22;100703.53;;;13.20;92.29
16595;BME280;8410;52.532;13.336;2023-03-22T01:10:50;100693.25;;;13.32;91.68
16595;BME280;8410;52.532;13.336;2023-03-22T01:13:17;100689.75;;;13.15;92.54
16595;BME280;8410;52.532;13.336;2023-03-22T01:15:49;100693.22;;;13.24;91.56
16595;BME280;8410;52.532;13.336;2023-03-22T01:18:16;100696.72;;;13.42;92.47
16595;BME280;8410;52.532;13.336;2023-03-22T01:20:45;100689.75;;;13.22;90.99
16595;BME280;8410;52.532;13.336;2023-03-22T01:23:13;100696.72;;;13.42;91.53
16595;BME280;8410;52.532;13.336;2023-03-22T01:25:40;100690.66;;;13.60;91.44
16595;BME280;8410;52.532;13.336;2023-03-22T01:28:08;100685.44;;;13.23;91.66
16595;BME280;8410;52.532;13.336;2023-03-22T01:30:37;100682.91;;;13.49;91.81
16595;BME280;8410;52.532;13.336;2023-03-22T01:33:05;100678.59;;;13.54;90.81
16595;BME280;8410;52.532;13.336;2023-03-22T01:35:34;100670.00;;;13.48;91.19
16595;BME280;8410;52.532;13.336;2023-03-22T01:38:03;100670.81;;;13.50;91.18
16595;BME280;8410;52.532;13.336;2023-03-22T01:40:31;100678.59;;;13.43;90.21
16595;BME280;8410;52.532;13.336;2023-03-22T01:42:59;100669.03;;;12.93;94.13
16595;BME280;8410;52.532;13.336;2023-03-22T01:45:34;100659.66;;;13.26;91.52
16595;BME280;8410;52.532;13.336;2023-03-22T01:48:05;100664.81;;;13.38;91.34
16595;BME280;8410;52.532;13.336;2023-03-22T01:50:35;100659.66;;;13.32;92.12
16595;BME280;8410;52.532;13.336;2023-03-22T01:53:07;100663.09;;;13.40;90.97
16595;BME280;8410;52.532;13.336;2023-03-22T01:55:35;100656.09;;;12.69;92.01
16595;BME280;8410;52.532;13.336;2023-03-22T01:58:03;100656.16;;;13.15;92.20
16595;BME280;8410;52.532;13.336;2023-03-22T02:00:32;100660.47;;;13.22;90.88
16595;BME280;8410;52.532;13.336;2023-03-22T02:02:59;100655.34;;;13.31;90.46
16595;BME280;8410;52.532;13.336;2023-03-22T02:05:28;100653.56;;;13.22;90.67
16595;BME280;8410;52.532;13.336;2023-03-22T02:07:56;100655.31;;;13.33;90.90
16595;BME280;8410;52.532;13.336;2023-03-22T02:10:25;100649.25;;;13.24;90.53
16595;BME280;8410;52.532;13.336;2023-03-22T02:13:05;100657.88;;;13.22;90.59
16595;BME280;8410;52.532;13.336;2023-03-22T02:15:41;100654.38;;;12.62;90.98
16595;BME280;8410;52.532;13.336;2023-03-22T02:18:20;100650.97;;;12.81;93.46
16595;BME280;8410;52.532;13.336;2023-03-22T02:21:17;100645.81;;;13.06;91.89
16595;BME280;8410;52.532;13.336;2023-03-22T02:24:19;100651.00;;;12.99;91.33
16595;BME280;8410;52.532;13.336;2023-03-22T02:30:17;100640.59;;;12.72;95.40
16595;BME280;8410;52.532;13.336;2023-03-22T02:33:04;100640.63;;;12.90;92.74
16595;BME280;8410;52.532;13.336;2023-03-22T02:35:45;100644.94;;;12.97;91.53
16595;BME280;8410;52.532;13.336;2023-03-22T02:38:57;100642.38;;;13.16;90.46
16595;BME280;8410;52.532;13.336;2023-03-22T02:41:33;100636.34;;;13.14;91.43
16595;BME280;8410;52.532;13.336;2023-03-22T02:44:08;100633.75;;;13.20;90.17
16595;BME280;8410;52.532;13.336;2023-03-22T02:46:42;100637.16;;;12.79;90.97
16595;BME280;8410;52.532;13.336;2023-03-22T02:49:17;100630.31;;;13.15;90.33
16595;BME280;8410;52.532;13.336;2023-03-22T02:51:49;100637.22;;;13.13;89.80
16595;BME280;8410;52.532;13.336;2023-03-22T02:54:24;100632.88;;;13.15;90.09
16595;BME280;8410;52.532;13.336;2023-03-22T02:56:58;100633.75;;;12.98;90.82
16595;BME280;8410;52.532;13.336;2023-03-22T02:59:30;100621.69;;;12.97;90.67
16595;BME280;8410;52.532;13.336;2023-03-22T03:02:02;100623.31;;;12.43;92.87
16595;BME280;8410;52.532;13.336;2023-03-22T03:04:36;100620.84;;;12.94;91.61
16595;BME280;8410;52.532;13.336;2023-03-22T03:07:07;100625.94;;;12.60;91.81
16595;BME280;8410;52.532;13.336;2023-03-22T03:09:39;100626.84;;;12.73;93.52
16595;BME280;8410;52.532;13.336;2023-03-22T03:12:12;100621.59;;;12.42;96.63
16595;BME280;8410;52.532;13.336;2023-03-22T03:14:39;100626.84;;;12.76;92.12
16595;BME280;8410;52.532;13.336;2023-03-22T03:17:15;100621.66;;;12.79;92.25
16595;BME280;8410;52.532;13.336;2023-03-22T03:19:54;100626.84;;;13.00;91.76
16595;BME280;8410;52.532;13.336;2023-03-22T03:22:31;100622.47;;;12.46;92.83
16595;BME280;8410;52.532;13.336;2023-03-22T03:25:08;100628.50;;;12.55;90.66
16595;BME280;8410;52.532;13.336;2023-03-22T03:27:43;100633.75;;;12.86;91.62
16595;BME280;8410;52.532;13.336;2023-03-22T03:30:19;100638.91;;;13.01;89.41
16595;BME280;8410;52.532;13.336;2023-03-22T03:32:54;100638.00;;;12.75;90.16
16595;BME280;8410;52.532;13.336;2023-03-22T03:35:26;100638.94;;;13.08;89.47
16595;BME280;8410;52.532;13.336;2023-03-22T03:37:57;100640.66;;;13.24;89.93
16595;BME280;8410;52.532;13.336;2023-03-22T03:40:30;100637.22;;;13.28;88.75
16595;BME280;8410;52.532;13.336;2023-03-22T03:43:01;100640.66;;;13.21;87.88
16595;BME280;8410;52.532;13.336;2023-03-22T03:45:29;100636.31;;;12.91;90.60
16595;BME280;8410;52.532;13.336;2023-03-22T03:47:59;100642.25;;;12.42;90.54
16595;BME280;8410;52.532;13.336;2023-03-22T03:50:27;100631.13;;;12.66;91.56
16595;BME280;8410;52.532;13.336;2023-03-22T03:52:55;100625.16;;;12.99;89.33
16595;BME280;8410;52.532;13.336;2023-03-22T03:55:24;100627.59;;;12.38;89.04
16595;BME280;8410;52.532;13.336;2023-03-22T03:57:53;100630.25;;;12.60;91.49
16595;BME280;8410;52.532;13.336;2023-03-22T04:00:21;100631.16;;;12.72;92.21
16595;BME280;8410;52.532;13.336;2023-03-22T04:02:49;100623.34;;;12.52;90.58
16595;BME280;8410;52.532;13.336;2023-03-22T04:05:16;100622.50;;;12.72;88.48
16595;BME280;8410;52.532;13.336;2023-03-22T04:07:44;100624.22;;;12.54;91.16
16595;BME280;8410;52.532;13.336;2023-03-22T04:10:12;100626.84;;;12.76;91.84
16595;BME280;8410;52.532;13.336;2023-03-22T04:12:39;100623.41;;;13.01;89.47
16595;BME280;8410;52.532;13.336;2023-03-22T04:15:09;100616.50;;;12.85;89.13
16595;BME280;8410;52.532;13.336;2023-03-22T04:17:37;100626.00;;;12.83;86.99
16595;BME280;8410;52.532;13.336;2023-03-22T04:20:06;100626.88;;;13.19;88.41
16595;BME280;8410;52.532;13.336;2023-03-22T04:22:36;100637.19;;;13.25;87.93
16595;BME280;8410;52.532;13.336;2023-03-22T04:25:05;100628.59;;;12.97;88.37
16595;BME280;8410;52.532;13.336;2023-03-22T04:27:38;100633.66;;;12.58;87.18
16595;BME280;8410;52.532;13.336;2023-03-22T04:30:09;100624.88;;;12.01;91.98
16595;BME280;8410;52.532;13.336;2023-03-22T04:32:38;100623.34;;;12.46;91.75
16595;BME280;8410;52.532;13.336;2023-03-22T04:35:06;100623.41;;;12.83;88.67
16595;BME280;8410;52.532;13.336;2023-03-22T04:37:33;100626.88;;;12.91;88.30
16595;BME280;8410;52.532;13.336;2023-03-22T04:40:01;100628.59;;;13.08;88.10
16595;BME280;8410;52.532;13.336;2023-03-22T04:42:32;100627.69;;;12.75;86.28
16595;BME280;8410;52.532;13.336;2023-03-22T04:45:00;100619.09;;;13.07;87.74
16595;BME280;8410;52.532;13.336;2023-03-22T04:47:30;100615.66;;;13.18;87.35
16595;BME280;8410;52.532;13.336;2023-03-22T04:49:57;100617.41;;;13.13;85.46
16595;BME280;8410;52.532;13.336;2023-03-22T04:52:25;100621.69;;;13.07;87.88
16595;BME280;8410;52.532;13.336;2023-03-22T04:54:52;100614.81;;;12.99;87.54
16595;BME280;8410;52.532;13.336;2023-03-22T04:57:20;100618.25;;;13.08;87.08
16595;BME280;8410;52.532;13.336;2023-03-22T04:59:47;100611.34;;;12.70;87.59
16595;BME280;8410;52.532;13.336;2023-03-22T05:02:15;100611.31;;;12.67;87.71
16595;BME280;8410;52.532;13.336;2023-03-22T05:04:44;100609.59;;;12.83;88.23
16595;BME280;8410;52.532;13.336;2023-03-22T05:07:12;100597.56;;;12.88;86.59
16595;BME280;8410;52.532;13.336;2023-03-22T05:09:39;100594.13;;;13.09;85.79
16595;BME280;8410;52.532;13.336;2023-03-22T05:12:07;100601.88;;;13.15;86.20
16595;BME280;8410;52.532;13.336;2023-03-22T05:14:34;100601.03;;;13.10;85.80
16595;BME280;8410;52.532;13.336;2023-03-22T05:17:02;100595.00;;;13.14;86.09
16595;BME280;8410;52.532;13.336;2023-03-22T05:19:29;100598.44;;;13.03;86.59
16595;BME280;8410;52.532;13.336;2023-03-22T05:21:59;100599.28;;;13.24;86.10
16595;BME280;8410;52.532;13.336;2023-03-22T05:24:27;100589.84;;;13.05;86.12
16595;BME280;8410;52.532;13.336;2023-03-22T05:26:55;100592.41;;;12.97;84.72
16595;BME280;8410;52.532;13.336;2023-03-22T05:29:26;100599.06;;;11.98;90.06
16595;BME280;8410;52.532;13.336;2023-03-22T05:31:54;100590.59;;;12.36;88.72
16595;BME280;8410;52.532;13.336;2023-03-22T05:34:21;100597.56;;;12.86;88.33
16595;BME280;8410;52.532;13.336;2023-03-22T05:36:49;100588.09;;;13.11;85.88
16595;BME280;8410;52.532;13.336;2023-03-22T05:39:18;100591.53;;;12.93;86.11
16595;BME280;8410;52.532;13.336;2023-03-22T05:41:46;100594.88;;;12.34;89.57
16595;BME280;8410;52.532;13.336;2023-03-22T05:44:13;100593.25;;;12.90;87.27
16595;BME280;8410;52.532;13.336;2023-03-22T05:46:41;100589.81;;;12.88;87.00
16595;BME280;8410;52.532;13.336;2023-03-22T05:49:08;100589.81;;;12.86;86.78
16595;BME280;8410;52.532;13.336;2023-03-22T05:51:37;100595.84;;;12.79;87.79
16595;BME280;8410;52.532;13.336;2023-03-22T05:54:07;100588.97;;;13.09;86.01
16595;BME280;8410;52.532;13.336;2023-03-22T05:56:36;100587.22;;;13.14;85.20
16595;BME280;8410;52.532;13.336;2023-03-22T05:59:06;100582.09;;;13.26;83.90
16595;BME280;8410;52.532;13.336;2023-03-22T06:01:33;100582.94;;;13.10;84.67
16595;BME280;8410;52.532;13.336;2023-03-22T06:04:01;100588.09;;;13.14;84.53
16595;BME280;8410;52.532;13.336;2023-03-22T06:06:28;100582.06;;;13.09;86.24
16595;BME280;8410;52.532;13.336;2023-03-22T06:08:56;100578.59;;;13.15;84.67
16595;BME280;8410;52.532;13.336;2023-03-22T06:11:42;100576.91;;;13.29;84.18
16595;BME280;8410;52.532;13.336;2023-03-22T06:14:10;100573.44;;;13.38;84.48
16595;BME280;8410;52.532;13.336;2023-03-22T06:16:37;100582.09;;;13.32;83.16
16595;BME280;8410;52.532;13.336;2023-03-22T06:19:05;100583.78;;;13.21;83.61
16595;BME280;8410;52.532;13.336;2023-03-22T06:21:32;100583.81;;;13.35;83.49
16595;BME280;8410;52.532;13.336;2023-03-22T06:23:59;100594.97;;;12.95;85.32
16595;BME280;8410;52.532;13.336;2023-03-22T06:26:27;100579.47;;;13.12;85.10
16595;BME280;8410;52.532;13.336;2023-03-22T06:28:56;100582.91;;;13.22;84.66
16595;BME280;8410;52.532;13.336;2023-03-22T06:31:23;100581.22;;;13.02;84.29
16595;BME280;8410;52.532;13.336;2023-03-22T06:33:51;100578.63;;;12.99;85.90
16595;BME280;8410;52.532;13.336;2023-03-22T06:36:21;100576.88;;;13.20;83.70
16595;BME280;8410;52.532;13.336;2023-03-22T06:38:48;100581.22;;;13.42;84.37
16595;BME280;8410;52.532;13.336;2023-03-22T06:41:16;100585.50;;;13.36;83.46
16595;BME280;8410;52.532;13.336;2023-03-22T06:43:43;100588.13;;;13.27;84.79
16595;BME280;8410;52.532;13.336;2023-03-22T06:46:12;100585.50;;;13.43;83.03
16595;BME280;8410;52.532;13.336;2023-03-22T06:48:40;100591.53;;;12.78;84.62
16595;BME280;8410;52.532;13.336;2023-03-22T06:51:08;100599.28;;;13.12;85.22
16595;BME280;8410;52.532;13.336;2023-03-22T06:53:35;100594.13;;;13.42;84.49
16595;BME280;8410;52.532;13.336;2023-03-22T06:56:04;100600.09;;;13.77;82.71
16595;BME280;8410;52.532;13.336;2023-03-22T06:58:31;100599.31;;;13.21;83.30
16595;BME280;8410;52.532;13.336;2023-03-22T07:00:59;100586.31;;;13.62;83.38
16595;BME280;8410;52.532;13.336;2023-03-22T07:03:28;100590.66;;;13.56;80.93
16595;BME280;8410;52.532;13.336;2023-03-22T07:05:59;100590.59;;;13.79;82.41
16595;BME280;8410;52.532;13.336;2023-03-22T07:08:27;100593.09;;;13.97;81.30
16595;BME280;8410;52.532;13.336;2023-03-22T07:10:55;100594.03;;;13.82;82.45
16595;BME280;8410;52.532;13.336;2023-03-22T07:13:22;100597.44;;;13.97;82.11
16595;BME280;8410;52.532;13.336;2023-03-22T07:15:54;100592.25;;;13.97;81.79
16595;BME280;8410;52.532;13.336;2023-03-22T07:18:22;100594.88;;;13.81;82.26
16595;BME280;8410;52.532;13.336;2023-03-22T07:20:51;100593.97;;;14.04;81.76
16595;BME280;8410;52.532;13.336;2023-03-22T07:23:18;100592.19;;;14.06;81.78
16595;BME280;8410;52.532;13.336;2023-03-22T07:25:46;100580.00;;;14.29;80.80
16595;BME280;8410;52.532;13.336;2023-03-22T07:28:14;100583.75;;;13.55;83.86
16595;BME280;8410;52.532;13.336;2023-03-22T07:30:42;100578.38;;;14.13;81.16
16595;BME280;8410;52.532;13.336;2023-03-22T07:33:10;100581.75;;;14.30;80.69
16595;BME280;8410;52.532;13.336;2023-03-22T07:35:37;100580.88;;;14.33;81.47
16595;BME280;8410;52.532;13.336;2023-03-22T07:38:06;100578.25;;;14.38;79.66
16595;BME280;8410;52.532;13.336;2023-03-22T07:40:33;100575.63;;;14.42;80.17
16595;BME280;8410;52.532;13.336;2023-03-22T07:43:02;100573.06;;;14.41;80.59
16595;BME280;8410;52.532;13.336;2023-03-22T07:45:30;100561.28;;;13.78;81.38
16595;BME280;8410;52.532;13.336;2023-03-22T07:47:58;100559.22;;;14.46;80.43
16595;BME280;8410;52.532;13.336;2023-03-22T07:50:26;100556.31;;;14.91;78.20
16595;BME280;8410;52.532;13.336;2023-03-22T07:52:53;100558.84;;;15.00;78.53
16595;BME280;8410;52.532;13.336;2023-03-22T07:55:22;100555.44;;;14.95;77.14
16595;BME280;8410;52.532;13.336;2023-03-22T07:57:50;100556.84;;;15.30;78.02
16595;BME280;8410;52.532;13.336;2023-03-22T08:00:19;100559.41;;;15.34;76.92
16595;BME280;8410;52.532;13.336;2023-03-22T08:02:47;100550.00;;;15.19;76.63
16595;BME280;8410;52.532;13.336;2023-03-22T08:05:15;100551.06;;;15.00;78.04
16595;BME280;8410;52.532;13.336;2023-03-22T08:07:42;100548.66;;;15.70;76.71
16595;BME280;8410;52.532;13.336;2023-03-22T08:10:10;100544.31;;;15.69;74.69
16595;BME280;8410;52.532;13.336;2023-03-22T08:12:39;100546.50;;;15.27;75.63
16595;BME280;8410;52.532;13.336;2023-03-22T08:15:08;100540.75;;;15.79;75.73
16595;BME280;8410;52.532;13.336;2023-03-22T08:17:36;100550.38;;;15.71;75.96
16595;BME280;8410;52.532;13.336;2023-03-22T08:20:04;100552.19;;;15.59;73.74
16595;BME280;8410;52.532;13.336;2023-03-22T08:22:34;100560.53;;;15.91;75.01
16595;BME280;8410;52.532;13.336;2023-03-22T08:25:02;100557.66;;;16.10;74.07
16595;BME280;8410;52.532;13.336;2023-03-22T08:27:30;100552.47;;;16.10;74.01
16595;BME280;8410;52.532;13.336;2023-03-22T08:29:59;100550.94;;;15.12;75.32
16595;BME280;8410;52.532;13.336;2023-03-22T08:32:27;100542.75;;;15.52;76.06
16595;BME280;8410;52.532;13.336;2023-03-22T08:34:55;100542.88;;;16.17;74.62
16595;BME280;8410;52.532;13.336;2023-03-22T08:37:22;100533.13;;;15.62;74.84
16595;BME280;8410;52.532;13.336;2023-03-22T08:39:50;100533.06;;;15.68;76.44
16595;BME280;8410;52.532;13.336;2023-03-22T08:42:18;100535.19;;;16.09;73.49
16595;BME280;8410;52.532;13.336;2023-03-22T08:44:45;100527.91;;;16.33;73.80
16595;BME280;8410;52.532;13.336;2023-03-22T08:47:14;100525.97;;;16.47;73.83
16595;BME280;8410;52.532;13.336;2023-03-22T08:49:42;100530.97;;;16.60;73.92
16595;BME280;8410;52.532;13.336;2023-03-22T08:52:09;100526.53;;;16.66;73.08
16595;BME280;8410;52.532;13.336;2023-03-22T08:54:37;100519.53;;;16.71;72.96
16595;BME280;8410;52.532;13.336;2023-03-22T08:57:04;100510.75;;;16.80;72.56
16595;BME280;8410;52.532;13.336;2023-03-22T08:59:34;100510.44;;;16.44;72.90
16595;BME280;8410;52.532;13.336;2023-03-22T09:02:02;100508.91;;;16.87;72.48
16595;BME280;8410;52.532;13.336;2023-03-22T09:04:31;100508.91;;;16.85;72.54
16595;BME280;8410;52.532;13.336;2023-03-22T09:06:58;100505.88;;;15.98;74.57
16595;BME280;8410;52.532;13.336;2023-03-22T09:09:26;100505.41;;;16.89;72.81
16595;BME280;8410;52.532;13.336;2023-03-22T09:11:54;100492.75;;;16.65;73.21
16595;BME280;8410;52.532;13.336;2023-03-22T09:14:21;100494.31;;;16.75;73.12
16595;BME280;8410;52.532;13.336;2023-03-22T09:16:49;100489.25;;;16.67;71.09
16595;BME280;8410;52.532;13.336;2023-03-22T09:19:17;100481.22;;;16.83;70.57
16595;BME280;8410;52.532;13.336;2023-03-22T09:21:46;100480.56;;;17.19;71.06
16595;BME280;8410;52.532;13.336;2023-03-22T09:24:13;100477.41;;;17.47;70.21
16595;BME280;8410;52.532;13.336;2023-03-22T09:26:41;100477.25;;;17.55;69.90
16595;BME280;8410;52.532;13.336;2023-03-22T09:29:08;100482.09;;;16.83;71.29
16595;BME280;8410;52.532;13.336;2023-03-22T09:31:36;100475.00;;;16.91;70.20
16595;BME280;8410;52.532;13.336;2023-03-22T09:34:04;100479.31;;;17.40;70.45
16595;BME280;8410;52.532;13.336;2023-03-22T09:36:32;100477.97;;;17.63;70.07
16595;BME280;8410;52.532;13.336;2023-03-22T09:39:00;100478.66;;;17.71;69.13
16595;BME280;8410;52.532;13.336;2023-03-22T09:41:35;100472.94;;;17.96;68.36
16595;BME280;8410;52.532;13.336;2023-03-22T09:44:07;100482.53;;;17.52;69.24
16595;BME280;8410;52.532;13.336;2023-03-22T09:46:39;100480.56;;;18.05;69.00
16595;BME280;8410;52.532;13.336;2023-03-22T09:49:11;100462.44;;;18.36;67.67
16595;BME280;8410;52.532;13.336;2023-03-22T09:51:42;100470.50;;;18.27;68.25
16595;BME280;8410;52.532;13.336;2023-03-22T09:54:14;100460.56;;;18.05;68.75
16595;BME280;8410;52.532;13.336;2023-03-22T09:56:46;100455.38;;;18.41;67.29
16595;BME280;8410;52.532;13.336;2023-03-22T09:59:21;100450.72;;;18.54;67.42
16595;BME280;8410;52.532;13.336;2023-03-22T10:01:55;100466.72;;;16.68;71.14
16595;BME280;8410;52.532;13.336;2023-03-22T10:04:34;100455.69;;;18.29;67.93
16595;BME280;8410;52.532;13.336;2023-03-22T10:07:17;100445.00;;;18.76;66.38
16595;BME280;8410;52.532;13.336;2023-03-22T10:09:56;100444.25;;;18.35;67.26
16595;BME280;8410;52.532;13.336;2023-03-22T10:12:28;100438.03;;;18.40;67.98
16595;BME280;8410;52.532;13.336;2023-03-22T10:15:03;100438.34;;;18.97;65.56
16595;BME280;8410;52.532;13.336;2023-03-22T10:17:33;100446.91;;;18.67;65.52
16595;BME280;8410;52.532;13.336;2023-03-22T10:20:04;100441.34;;;18.83;65.86
16595;BME280;8410;52.532;13.336;2023-03-22T10:22:37;100431.88;;;19.11;65.22
16595;BME280;8410;52.532;13.336;2023-03-22T10:25:08;100431.16;;;19.05;64.88
16595;BME280;8410;52.532;13.336;2023-03-22T10:27:36;100430.97;;;18.45;65.68
16595;BME280;8410;52.532;13.336;2023-03-22T10:30:08;100418.50;;;18.91;65.06
16595;BME280;8410;52.532;13.336;2023-03-22T10:32:41;100414.88;;;18.97;63.35
16595;BME280;8410;52.532;13.336;2023-03-22T10:35:23;100406.03;;;19.02;64.11
16595;BME280;8410;52.532;13.336;2023-03-22T10:37:51;100400.22;;;18.58;65.01
16595;BME280;8410;52.532;13.336;2023-03-22T10:40:25;100398.69;;;18.84;64.26
16595;BME280;8410;52.532;13.336;2023-03-22T10:42:55;100392.09;;;18.02;65.49
16595;BME280;8410;52.532;13.336;2023-03-22T10:45:23;100391.44;;;17.91;66.60
16595;BME280;8410;52.532;13.336;2023-03-22T10:47:56;100391.28;;;18.68;66.25
16595;BME280;8410;52.532;13.336;2023-03-22T10:50:29;100377.34;;;18.69;64.48
16595;BME280;8410;52.532;13.336;2023-03-22T10:53:02;100382.19;;;18.85;63.85
16595;BME280;8410;52.532;13.336;2023-03-22T10:55:31;100374.94;;;18.60;64.43
16595;BME280;8410;52.532;13.336;2023-03-22T10:58:11;100378.84;;;18.80;64.68
16595;BME280;8410;52.532;13.336;2023-03-22T11:00:44;100380.34;;;18.87;63.21
16595;BME280;8410;52.532;13.336;2023-03-22T11:03:25;100379.41;;;18.22;63.66
16595;BME280;8410;52.532;13.336;2023-03-22T11:06:01;100379.59;;;18.83;63.64
16595;BME280;8410;52.532;13.336;2023-03-22T11:08:38;100383.06;;;18.84;63.19
16595;BME280;8410;52.532;13.336;2023-03-22T11:11:14;100378.94;;;18.73;63.39
16595;BME280;8410;52.532;13.336;2023-03-22T11:13:49;100370.53;;;18.64;62.57
16595;BME280;8410;52.532;13.336;2023-03-22T11:16:17;100367.81;;;18.68;63.08
16595;BME280;8410;52.532;13.336;2023-03-22T11:18:45;100363.28;;;18.42;63.13
16595;BME280;8410;52.532;13.336;2023-03-22T11:21:15;100363.28;;;18.77;63.91
16595;BME280;8410;52.532;13.336;2023-03-22T11:23:50;100370.19;;;18.43;63.26
16595;BME280;8410;52.532;13.336;2023-03-22T11:26:28;100368.59;;;18.70;62.28
16595;BME280;8410;52.532;13.336;2023-03-22T11:29:03;100372.59;;;18.51;62.58
16595;BME280;8410;52.532;13.336;2023-03-22T11:31:55;100377.75;;;17.82;63.62
16595;BME280;8410;52.532;13.336;2023-03-22T11:34:26;100375.03;;;18.24;62.28
16595;BME280;8410;52.532;13.336;2023-03-22T11:36:54;100359.00;;;18.40;61.56
16595;BME280;8410;52.532;13.336;2023-03-22T11:39:24;100367.38;;;18.51;61.66
16595;BME280;8410;52.532;13.336;2023-03-22T11:41:57;100360.59;;;19.09;60.29
16595;BME280;8410;52.532;13.336;2023-03-22T11:44:27;100366.16;;;18.32;61.77
16595;BME280;8410;52.532;13.336;2023-03-22T11:47:00;100362.84;;;18.58;61.76
16595;BME280;8410;52.532;13.336;2023-03-22T11:49:37;100356.97;;;18.51;61.45
16595;BME280;8410;52.532;13.336;2023-03-22T11:52:08;100342.44;;;18.73;60.43
16595;BME280;8410;52.532;13.336;2023-03-22T11:54:37;100340.97;;;19.27;59.30
16595;BME280;8410;52.532;13.336;2023-03-22T11:57:12;100330.34;;;19.32;59.53
16595;BME280;8410;52.532;13.336;2023-03-22T11:59:47;100332.16;;;19.00;59.94
16595;BME280;8410;52.532;13.336;2023-03-22T12:02:19;100321.78;;;18.99;58.68
16595;BME280;8410;52.532;13.336;2023-03-22T12:04:52;100329.06;;;18.87;60.08
16595;BME280;8410;52.532;13.336;2023-03-22T12:07:23;100314.91;;;19.26;58.49
16595;BME280;8410;52.532;13.336;2023-03-22T12:09:57;100329.38;;;18.77;59.37
16595;BME280;8410;52.532;13.336;2023-03-22T12:12:33;100321.72;;;19.00;59.28
16595;BME280;8410;52.532;13.336;2023-03-22T12:15:05;100322.81;;;18.93;59.24
16595;BME280;8410;52.532;13.336;2023-03-22T12:17:37;100320.75;;;19.32;58.34
16595;BME280;8410;52.532;13.336;2023-03-22T12:20:15;100323.03;;;18.85;59.33
16595;BME280;8410;52.532;13.336;2023-03-22T12:22:48;100309.38;;;19.63;58.45
16595;BME280;8410;52.532;13.336;2023-03-22T12:25:20;100305.00;;;19.64;57.80
16595;BME280;8410;52.532;13.336;2023-03-22T12:27:52;100303.75;;;19.21;58.94
16595;BME280;8410;52.532;13.336;2023-03-22T12:30:22;100301.16;;;18.58;59.77
16595;BME280;8410;52.532;13.336;2023-03-22T12:32:56;100299.44;;;19.20;59.00
16595;BME280;8410;52.532;13.336;2023-03-22T12:35:28;100285.53;;;18.58;59.77
16595;BME280;8410;52.532;13.336;2023-03-22T12:37:58;100279.19;;;19.26;58.91
16595;BME280;8410;52.532;13.336;2023-03-22T12:40:31;100280.06;;;19.55;58.16
16595;BME280;8410;52.532;13.336;2023-03-22T12:43:04;100295.69;;;18.67;59.46
16595;BME280;8410;52.532;13.336;2023-03-22T12:45:39;100273.16;;;18.96;59.35
16595;BME280;8410;52.532;13.336;2023-03-22T12:48:14;100283.00;;;19.44;57.91
16595;BME280;8410;52.532;13.336;2023-03-22T12:50:47;100274.25;;;18.89;59.32
16595;BME280;8410;52.532;13.336;2023-03-22T12:53:17;100278.28;;;18.99;58.57
16595;BME280;8410;52.532;13.336;2023-03-22T12:55:47;100278.81;;;19.10;58.54
16595;BME280;8410;52.532;13.336;2023-03-22T12:58:19;100272.84;;;18.77;59.51
16595;BME280;8410;52.532;13.336;2023-03-22T13:00:51;100271.25;;;19.31;57.85
16595;BME280;8410;52.532;13.336;2023-03-22T13:03:24;100263.78;;;19.47;58.29
16595;BME280;8410;52.532;13.336;2023-03-22T13:06:00;100266.81;;;18.73;59.10
16595;BME280;8410;52.532;13.336;2023-03-22T13:11:29;100262.19;;;19.14;58.57
16595;BME280;8410;52.532;13.336;2023-03-22T13:13:58;100262.44;;;18.76;59.40